Terminal Aerodrome Forecast
Issued by NWS Wilmington, OH

Current Version | Previous Version | Graphics & Text | Print | Product List | Glossary On
Versions: 1 2 3 4 5 6 7 8 9 10 11 12 13 14
000
FTUS41 KILN 181739
TAFCMH
TAF
KCMH 181739Z 1818/1918 16006KT P6SM SCT060
     FM182300 13006KT P6SM VCSH OVC035
      TEMPO 1900/1902 5SM SHRA OVC025
     FM190200 29012G18KT P6SM OVC022
     FM190500 27014G24KT P6SM VCSH OVC015
     FM190900 29012G22KT 5SM -SN OVC012
     FM191300 32014G22KT P6SM OVC018
     FM191700 32014G22KT P6SM BKN025=

USA.gov is the U.S. government's official web portal to all federal, state and local government web resources and services.